Time;durP1;ratioP1;P1;durP2;ratioP2;P2;SDS_P1;SDS_P2;PMS_P1;PMS_P2;Temp;Humidity;BMP_temperature;BMP_pressure;BME280_temperature;BME280_humidity;BME280_pressure;Samples;Min_cycle;Max_cycle;Signal;HPM_P1;HPM_P2
2021/01/02 00:01:51;;;;;;;1.63;0.65;;;15.10;52.00;;;;;;4922930;29;20174;-76
2021/01/02 00:04:44;;;;;;;1.90;0.80;;;15.10;51.90;;;;;;4921656;29;20048;-76
2021/01/02 00:07:38;;;;;;;1.30;0.70;;;15.10;52.00;;;;;;4925236;29;20118;-76
2021/01/02 00:10:06;;;;;;;3.08;0.75;;;15.00;51.90;;;;;;4939166;29;20052;-75
2021/01/02 00:13:09;;;;;;;1.70;0.65;;;15.00;51.90;;;;;;4941008;29;20466;-75
2021/01/02 00:16:04;;;;;;;1.98;0.75;;;15.00;51.90;;;;;;4940725;29;20040;-75
2021/01/02 00:18:32;;;;;;;;;;;14.90;51.90;;;;;;4901873;29;20061;-76
2021/01/02 00:21:21;;;;;;;2.10;0.60;;;14.90;52.00;;;;;;4914986;29;19938;-76
2021/01/02 00:24:27;;;;;;;1.13;0.55;;;14.90;52.10;;;;;;4922277;29;20072;-76
2021/01/02 00:27:05;;;;;;;3.58;0.85;;;14.90;52.00;;;;;;4902167;29;20064;-75
2021/01/02 00:30:07;;;;;;;3.05;1.13;;;14.90;52.40;;;;;;4921769;29;20044;-76
2021/01/02 00:32:51;;;;;;;2.05;0.80;;;14.90;52.40;;;;;;4921203;29;20055;-76
2021/01/02 00:35:22;;;;;;;2.20;0.60;;;14.80;52.40;;;;;;4922269;29;20075;-76
2021/01/02 00:38:04;;;;;;;2.55;1.08;;;14.80;52.60;;;;;;4921763;29;20059;-75
2021/01/02 00:40:32;;;;;;;1.60;0.70;;;14.80;52.60;;;;;;4921151;29;20131;-75
2021/01/02 00:42:58;;;;;;;2.33;0.77;;;14.80;52.60;;;;;;4921102;29;20055;-74
2021/01/02 00:45:26;;;;;;;1.45;0.80;;;14.80;52.60;;;;;;4921567;29;20048;-75
2021/01/02 00:47:52;;;;;;;3.17;1.10;;;14.80;52.70;;;;;;4920932;29;20052;-75
2021/01/02 00:50:21;;;;;;;3.13;1.35;;;14.80;52.70;;;;;;4936733;29;20135;-76
2021/01/02 00:53:01;;;;;;;2.25;0.82;;;14.80;52.80;;;;;;4921082;29;20049;-75
2021/01/02 00:55:46;;;;;;;2.75;0.90;;;14.90;52.90;;;;;;4924632;29;20048;-75
2021/01/02 00:58:47;;;;;;;1.55;0.82;;;14.90;52.80;;;;;;4921149;29;20071;-77
2021/01/02 01:01:57;;;;;;;2.83;0.93;;;14.90;52.80;;;;;;4869740;29;20221;-76
2021/01/02 01:04:54;;;;;;;1.88;0.90;;;14.90;52.90;;;;;;4914599;29;20123;-76
2021/01/02 01:07:21;;;;;;;1.50;0.70;;;15.00;53.20;;;;;;4920800;29;20131;-75
2021/01/02 01:09:50;;;;;;;1.80;0.90;;;15.00;53.10;;;;;;4921445;29;20051;-76
2021/01/02 01:12:18;;;;;;;4.75;1.23;;;15.00;52.90;;;;;;4925419;29;20056;-76
2021/01/02 01:14:48;;;;;;;2.38;0.88;;;15.10;53.50;;;;;;4939840;29;20051;-76
2021/01/02 01:17:21;;;;;;;3.10;0.88;;;15.10;52.80;;;;;;4930571;29;20052;-76
2021/01/02 01:19:55;;;;;;;3.00;1.08;;;15.10;52.60;;;;;;4920524;29;20052;-76
2021/01/02 01:22:30;;;;;;;1.58;0.80;;;15.10;52.50;;;;;;4920069;29;20130;-76
2021/01/02 01:25:31;;;;;;;1.45;1.00;;;15.20;52.60;;;;;;4920614;29;20052;-75
2021/01/02 01:28:04;;;;;;;1.90;0.80;;;15.20;52.70;;;;;;4921750;29;20119;-77
2021/01/02 01:30:38;;;;;;;2.63;0.68;;;15.20;52.50;;;;;;4920630;29;20048;-77
2021/01/02 01:33:04;;;;;;;3.60;0.77;;;15.20;52.50;;;;;;4923800;29;20036;-77
2021/01/02 01:35:30;;;;;;;2.47;0.60;;;15.20;52.40;;;;;;4939353;29;20062;-74
2021/01/02 01:37:58;;;;;;;2.95;0.68;;;15.20;52.40;;;;;;4939740;29;20475;-74
2021/01/02 01:40:31;;;;;;;2.42;0.90;;;15.30;52.30;;;;;;4939245;29;20097;-76
2021/01/02 01:43:06;;;;;;;2.63;0.95;;;15.30;52.40;;;;;;4921457;29;20058;-75
2021/01/02 01:45:37;;;;;;;3.85;1.48;;;15.30;52.20;;;;;;4920178;29;20096;-75
2021/01/02 01:48:07;;;;;;;2.45;0.77;;;15.30;52.10;;;;;;4920070;29;20040;-75
2021/01/02 01:51:10;;;;;;;1.50;0.80;;;15.30;52.10;;;;;;4920333;29;20048;-77
2021/01/02 01:53:54;;;;;;;1.95;0.90;;;15.30;51.90;;;;;;4919961;29;20114;-76
2021/01/02 01:56:30;;;;;;;1.92;0.80;;;15.30;52.00;;;;;;4920732;29;20095;-75
2021/01/02 01:59:20;;;;;;;2.53;0.90;;;15.30;51.90;;;;;;4920054;29;20071;-75
2021/01/02 02:01:52;;;;;;;4.88;1.17;;;15.30;51.90;;;;;;4911259;29;20052;-76
2021/01/02 02:04:48;;;;;;;3.08;1.27;;;15.40;52.00;;;;;;4919789;29;20071;-75
2021/01/02 02:07:20;;;;;;;1.67;0.70;;;15.40;52.00;;;;;;4929748;29;20055;-75
2021/01/02 02:09:59;;;;;;;2.33;0.70;;;15.30;51.90;;;;;;4936831;29;20051;-77
2021/01/02 02:12:31;;;;;;;2.13;0.60;;;15.40;51.80;;;;;;4939040;29;20136;-74
2021/01/02 02:15:00;;;;;;;1.90;0.57;;;15.40;51.80;;;;;;4938897;29;20102;-76
2021/01/02 02:17:28;;;;;;;2.00;0.68;;;15.40;52.00;;;;;;4938909;29;20043;-76
2021/01/02 02:19:57;;;;;;;2.33;0.68;;;15.40;51.90;;;;;;4933364;29;20368;-75
2021/01/02 02:22:27;;;;;;;2.75;0.98;;;15.40;51.80;;;;;;4919911;29;20073;-75
2021/01/02 02:24:55;;;;;;;1.67;0.55;;;15.40;51.70;;;;;;4922975;29;20067;-75
2021/01/02 02:27:26;;;;;;;2.97;0.70;;;15.40;51.60;;;;;;4899519;29;20049;-75
2021/01/02 02:30:04;;;;;;;1.75;0.68;;;15.40;51.50;;;;;;4911889;29;20135;-75
2021/01/02 02:32:35;;;;;;;3.40;0.73;;;15.40;51.60;;;;;;4920112;29;20058;-75
2021/01/02 02:35:24;;;;;;;2.55;0.75;;;15.40;51.50;;;;;;4919532;29;20048;-76
2021/01/02 02:37:52;;;;;;;1.88;0.50;;;15.40;51.40;;;;;;4919599;29;20055;-75
2021/01/02 02:40:20;;;;;;;1.67;0.63;;;15.40;51.50;;;;;;4928041;29;20082;-76
2021/01/02 02:42:58;;;;;;;2.85;0.90;;;15.30;51.40;;;;;;4928920;29;20054;-76
2021/01/02 02:45:27;;;;;;;3.92;0.60;;;15.40;51.30;;;;;;4919737;29;20538;-76
2021/01/02 02:47:55;;;;;;;2.58;0.85;;;15.40;51.20;;;;;;4919614;29;20051;-75
2021/01/02 02:50:25;;;;;;;2.15;0.52;;;15.30;51.20;;;;;;4919139;29;20104;-75
2021/01/02 02:53:12;;;;;;;2.15;0.95;;;15.30;51.20;;;;;;4919110;29;20052;-74
2021/01/02 02:55:39;;;;;;;2.03;0.63;;;15.30;51.20;;;;;;4919469;29;20043;-76
2021/01/02 02:58:05;;;;;;;4.13;0.70;;;15.30;51.20;;;;;;4919292;29;20060;-75
2021/01/02 03:00:32;;;;;;;2.03;0.70;;;15.30;51.10;;;;;;4918898;29;20048;-77
2021/01/02 03:02:58;;;;;;;2.75;0.75;;;15.30;51.10;;;;;;4929112;29;20052;-75
2021/01/02 03:05:24;;;;;;;2.78;0.88;;;15.30;51.20;;;;;;4938082;29;20510;-75
2021/01/02 03:07:50;;;;;;;2.42;0.70;;;15.30;51.20;;;;;;4938565;29;20439;-75
2021/01/02 03:10:21;;;;;;;2.80;0.70;;;15.30;51.20;;;;;;4923658;29;20115;-76
2021/01/02 03:12:48;;;;;;;2.72;1.05;;;15.30;51.10;;;;;;4918720;29;20067;-76
2021/01/02 03:15:17;;;;;;;2.13;0.70;;;15.30;51.10;;;;;;4918339;29;20048;-75
2021/01/02 03:17:43;;;;;;;2.65;0.68;;;15.30;51.10;;;;;;4920358;29;20432;-74
2021/01/02 03:20:12;;;;;;;2.88;0.68;;;15.30;51.10;;;;;;4899960;29;20052;-74
2021/01/02 03:22:46;;;;;;;2.55;0.60;;;15.30;51.00;;;;;;4900079;29;20059;-75
2021/01/02 03:25:14;;;;;;;4.65;0.90;;;15.30;51.00;;;;;;4903400;29;20048;-75
2021/01/02 03:27:40;;;;;;;3.67;0.95;;;15.30;51.10;;;;;;4918671;29;20052;-76
2021/01/02 03:30:08;;;;;;;2.78;0.60;;;15.30;51.10;;;;;;4918443;29;20441;-75
2021/01/02 03:32:34;;;;;;;2.38;0.73;;;15.30;51.00;;;;;;4918250;29;20048;-75
2021/01/02 03:35:00;;;;;;;2.80;0.60;;;15.30;51.00;;;;;;4918868;29;20055;-76
2021/01/02 03:37:26;;;;;;;1.95;0.65;;;15.30;51.00;;;;;;4919565;29;20047;-75
2021/01/02 03:39:52;;;;;;;2.13;0.63;;;15.30;51.00;;;;;;4918455;29;20103;-76
2021/01/02 03:42:19;;;;;;;3.60;0.93;;;15.30;51.00;;;;;;4918892;29;20076;-76
2021/01/02 03:44:44;;;;;;;1.85;0.52;;;15.30;51.00;;;;;;4918709;29;20531;-75
2021/01/02 03:47:11;;;;;;;3.40;0.70;;;15.30;50.90;;;;;;4932798;29;20048;-75
2021/01/02 03:49:37;;;;;;;3.25;0.98;;;15.30;50.90;;;;;;4937487;29;20043;-76
2021/01/02 03:52:04;;;;;;;2.85;0.70;;;15.30;50.90;;;;;;4936187;29;20052;-76
2021/01/02 03:54:31;;;;;;;3.55;0.85;;;15.30;50.90;;;;;;4937805;29;20056;-76
2021/01/02 03:56:57;;;;;;;1.80;0.65;;;15.30;50.90;;;;;;4936858;29;20052;-75
2021/01/02 03:59:23;;;;;;;3.45;0.90;;;15.20;50.70;;;;;;4935628;29;20058;-74
2021/01/02 04:01:56;;;;;;;2.92;0.43;;;15.30;50.80;;;;;;4918989;29;20127;-75
2021/01/02 04:04:22;;;;;;;3.53;0.63;;;15.30;51.00;;;;;;4920019;29;20055;-77
2021/01/02 04:06:50;;;;;;;3.40;0.98;;;15.30;51.00;;;;;;4937553;29;20072;-75
2021/01/02 04:09:20;;;;;;;1.85;0.40;;;15.20;50.80;;;;;;4937059;29;20063;-76
2021/01/02 04:11:47;;;;;;;4.47;0.98;;;15.30;50.80;;;;;;4935528;29;20500;-76
2021/01/02 04:14:13;;;;;;;3.90;1.10;;;15.20;50.70;;;;;;4937884;29;20051;-76
2021/01/02 04:16:40;;;;;;;4.53;0.85;;;15.20;50.80;;;;;;4938099;29;20051;-74
2021/01/02 04:19:07;;;;;;;1.48;0.60;;;15.20;50.90;;;;;;4937464;29;20368;-76
2021/01/02 04:21:34;;;;;;;2.15;0.68;;;15.20;50.90;;;;;;4937340;29;20455;-74
2021/01/02 04:24:01;;;;;;;2.00;0.60;;;15.20;50.90;;;;;;4938526;29;20130;-74
2021/01/02 04:26:27;;;;;;;2.67;0.60;;;15.20;50.90;;;;;;4924303;29;20511;-76
2021/01/02 04:28:53;;;;;;;3.28;0.70;;;15.20;50.90;;;;;;4926126;29;20467;-77
2021/01/02 04:31:20;;;;;;;2.13;0.60;;;15.20;50.90;;;;;;4921756;29;20052;-76
2021/01/02 04:33:46;;;;;;;4.28;0.90;;;15.20;51.00;;;;;;4921866;29;20056;-76
2021/01/02 04:36:14;;;;;;;2.13;0.70;;;15.10;50.90;;;;;;4921049;29;20364;-76
2021/01/02 04:38:40;;;;;;;2.60;0.60;;;15.20;51.00;;;;;;4920900;29;20048;-76
2021/01/02 04:41:06;;;;;;;3.47;0.65;;;15.20;51.00;;;;;;4928414;29;20361;-75
2021/01/02 04:43:33;;;;;;;3.58;1.10;;;15.20;51.00;;;;;;4940484;29;20074;-75
2021/01/02 04:46:02;;;;;;;2.75;0.50;;;15.10;50.90;;;;;;4939524;29;20320;-74
2021/01/02 04:48:28;;;;;;;2.13;0.40;;;15.20;50.90;;;;;;4939861;29;20071;-75
2021/01/02 04:50:54;;;;;;;4.80;0.60;;;15.20;51.00;;;;;;4940104;29;20040;-75
2021/01/02 04:53:21;;;;;;;2.72;0.77;;;15.20;51.00;;;;;;4940411;29;20127;-75
2021/01/02 04:55:47;;;;;;;4.00;0.80;;;15.20;51.10;;;;;;4938454;29;20048;-75
2021/01/02 04:58:15;;;;;;;2.92;0.55;;;15.20;51.10;;;;;;4938694;29;20427;-75
2021/01/02 05:00:42;;;;;;;2.40;0.82;;;15.20;51.00;;;;;;4921308;29;20068;-77
2021/01/02 05:03:08;;;;;;;3.05;0.73;;;15.20;51.00;;;;;;4921210;29;20067;-76
2021/01/02 05:05:35;;;;;;;2.25;0.70;;;15.20;51.00;;;;;;4920699;29;20796;-74
2021/01/02 05:08:02;;;;;;;2.25;0.50;;;15.20;50.90;;;;;;4920742;29;20111;-75
2021/01/02 05:10:28;;;;;;;3.47;0.75;;;15.20;50.90;;;;;;4922388;29;20048;-75
2021/01/02 05:13:12;;;;;;;2.35;0.57;;;15.20;50.90;;;;;;4937353;29;20454;-75
2021/01/02 05:15:39;;;;;;;4.07;0.82;;;15.20;50.80;;;;;;4940525;29;20063;-74
2021/01/02 05:18:05;;;;;;;2.05;0.52;;;15.20;50.90;;;;;;4940085;29;20043;-77
2021/01/02 05:20:31;;;;;;;4.28;0.73;;;15.20;50.90;;;;;;4929878;29;20478;-75
2021/01/02 05:23:10;;;;;;;2.97;0.80;;;15.20;50.90;;;;;;4920639;29;20075;-74
2021/01/02 05:25:37;;;;;;;3.95;0.73;;;15.20;50.90;;;;;;4920670;29;20076;-75
2021/01/02 05:28:03;;;;;;;3.50;0.60;;;15.20;50.70;;;;;;4920598;29;20103;-76
2021/01/02 05:30:34;;;;;;;2.15;0.52;;;15.20;50.70;;;;;;4929523;29;20047;-76
2021/01/02 05:33:10;;;;;;;7.05;1.00;;;15.20;50.70;;;;;;4939791;29;20408;-76
2021/01/02 05:35:37;;;;;;;3.17;0.73;;;15.20;50.70;;;;;;4935860;29;20356;-76
2021/01/02 05:38:19;;;;;;;2.65;0.43;;;15.20;50.80;;;;;;4920294;29;20067;-76
2021/01/02 05:40:58;;;;;;;3.38;0.60;;;15.20;50.70;;;;;;4930831;29;20048;-75
2021/01/02 05:43:26;;;;;;;3.60;0.63;;;15.20;50.70;;;;;;4939574;29;20122;-76
2021/01/02 05:45:53;;;;;;;2.20;0.63;;;15.20;50.70;;;;;;4939018;29;20075;-75
2021/01/02 05:48:27;;;;;;;2.80;0.60;;;15.20;50.70;;;;;;4938327;29;20102;-75
2021/01/02 05:50:57;;;;;;;6.30;0.52;;;15.20;50.70;;;;;;4927446;29;20058;-75
2021/01/02 05:53:35;;;;;;;2.78;0.50;;;15.20;51.50;;;;;;4920806;29;20505;-73
2021/01/02 05:56:04;;;;;;;7.85;0.73;;;15.30;51.00;;;;;;4919995;29;20048;-76
2021/01/02 05:58:32;;;;;;;7.90;0.88;;;15.30;51.20;;;;;;4920564;29;20087;-76
2021/01/02 06:01:09;;;;;;;4.03;0.60;;;15.30;51.40;;;;;;4920095;29;20052;-76
2021/01/02 06:03:37;;;;;;;15.48;1.55;;;15.30;51.40;;;;;;4929218;29;20122;-75
2021/01/02 06:06:08;;;;;;;13.32;1.00;;;15.40;51.50;;;;;;4919704;29;20040;-76
2021/01/02 06:08:42;;;;;;;15.27;1.58;;;15.40;51.70;;;;;;4921027;29;20127;-76
2021/01/02 06:11:16;;;;;;;9.35;1.35;;;15.50;51.50;;;;;;4909820;29;20052;-78
2021/01/02 06:13:46;;;;;;;14.10;1.08;;;15.60;51.60;;;;;;4919895;29;20070;-74
2021/01/02 06:16:12;;;;;;;9.50;0.85;;;15.70;51.80;;;;;;4919655;29;20123;-74
2021/01/02 06:18:42;;;;;;;9.48;0.90;;;15.90;51.90;;;;;;4920328;29;20066;-75
2021/01/02 06:21:10;;;;;;;9.05;1.25;;;16.10;52.10;;;;;;4919901;29;20048;-73
2021/01/02 06:23:38;;;;;;;8.95;1.02;;;16.20;52.30;;;;;;4926224;29;20107;-75
2021/01/02 06:26:05;;;;;;;9.18;0.93;;;16.30;52.20;;;;;;4917521;29;20064;-75
2021/01/02 06:28:37;;;;;;;9.57;0.82;;;16.40;52.10;;;;;;4918222;29;20048;-77
2021/01/02 06:31:11;;;;;;;18.70;1.48;;;16.50;52.10;;;;;;4922963;29;20055;-75
2021/01/02 06:33:44;;;;;;;6.90;0.90;;;16.50;52.10;;;;;;4918604;29;20039;-77
2021/01/02 06:36:34;;;;;;;9.73;1.10;;;16.60;52.30;;;;;;4919271;29;20047;-75
2021/01/02 06:39:24;;;;;;;13.73;1.23;;;16.70;52.60;;;;;;4900251;29;20045;-76
2021/01/02 06:41:52;;;;;;;7.85;0.73;;;16.70;52.70;;;;;;4915857;29;20044;-75
2021/01/02 06:44:41;;;;;;;5.00;1.02;;;16.80;52.60;;;;;;4917965;29;20070;-76
2021/01/02 06:47:31;;;;;;;4.50;0.90;;;16.80;52.80;;;;;;4918085;29;20052;-76
2021/01/02 06:49:56;;;;;;;3.13;0.73;;;16.90;52.70;;;;;;4918979;29;20068;-76
2021/01/02 06:52:36;;;;;;;7.25;0.73;;;16.90;52.60;;;;;;4917790;29;20044;-75
2021/01/02 06:55:23;;;;;;;8.45;0.70;;;17.00;52.80;;;;;;4918817;29;20052;-76
2021/01/02 06:57:51;;;;;;;6.70;0.88;;;17.00;52.90;;;;;;4918184;29;20114;-75
2021/01/02 07:00:21;;;;;;;2.58;0.35;;;17.10;52.70;;;;;;4920908;29;20056;-76
2021/01/02 07:02:47;;;;;;;4.47;0.57;;;17.10;52.70;;;;;;4937778;29;20444;-76
2021/01/02 07:05:48;;;;;;;6.70;0.80;;;17.20;52.70;;;;;;4936958;29;20051;-75
2021/01/02 07:08:39;;;;;;;5.80;0.60;;;17.30;52.80;;;;;;4936482;29;20048;-76
2021/01/02 07:11:23;;;;;;;4.95;0.60;;;17.30;52.70;;;;;;4922751;29;20467;-73
2021/01/02 07:14:11;;;;;;;4.50;0.70;;;17.40;52.80;;;;;;4922454;29;20040;-75
2021/01/02 07:16:45;;;;;;;4.82;0.93;;;17.50;52.80;;;;;;4929505;29;20047;-74
2021/01/02 07:19:26;;;;;;;;;;;17.50;52.50;;;;;;4932029;29;20154;-73
2021/01/02 07:22:16;;;;;;;6.15;0.57;;;17.60;52.70;;;;;;4934492;29;19979;-74
2021/01/02 07:24:46;;;;;;;2.10;0.70;;;17.70;52.60;;;;;;4929676;29;20052;-73
2021/01/02 07:27:17;;;;;;;4.32;0.57;;;17.70;52.40;;;;;;4927394;29;20043;-73
2021/01/02 07:29:45;;;;;;;5.90;0.90;;;17.70;52.30;;;;;;4934404;29;20043;-75
2021/01/02 07:32:14;;;;;;;7.25;0.95;;;17.70;52.30;;;;;;4930857;29;20119;-75
2021/01/02 07:34:44;;;;;;;7.03;0.60;;;17.70;52.20;;;;;;4933372;29;20469;-76
2021/01/02 07:37:13;;;;;;;5.32;0.50;;;17.70;52.20;;;;;;4937583;29;20048;-76
2021/01/02 07:39:40;;;;;;;2.28;0.55;;;17.60;52.10;;;;;;4935844;29;20044;-75
2021/01/02 07:42:12;;;;;;;4.70;0.43;;;17.60;52.10;;;;;;4934047;29;20063;-75
2021/01/02 07:44:39;;;;;;;6.80;0.80;;;17.60;52.10;;;;;;4936786;29;20044;-75
2021/01/02 07:47:06;;;;;;;6.70;1.08;;;17.70;52.30;;;;;;4937031;29;20123;-75
2021/01/02 07:49:33;;;;;;;6.35;0.77;;;17.70;52.40;;;;;;4932608;29;20474;-81
2021/01/02 07:51:59;;;;;;;6.32;1.10;;;17.70;52.40;;;;;;4916860;29;20118;-75
2021/01/02 07:54:32;;;;;;;4.90;0.60;;;17.70;52.30;;;;;;4917271;29;20058;-75
2021/01/02 07:56:58;;;;;;;6.47;1.02;;;17.70;52.20;;;;;;4923659;29;20043;-74
2021/01/02 07:59:29;;;;;;;6.63;0.70;;;17.70;52.20;;;;;;4926936;29;20047;-77
2021/01/02 08:01:56;;;;;;;4.95;0.50;;;17.80;52.20;;;;;;4922449;29;20456;-74
2021/01/02 08:04:24;;;;;;;5.57;0.70;;;17.80;52.10;;;;;;4926195;29;20075;-75
2021/01/02 08:06:52;;;;;;;5.05;0.80;;;17.80;52.00;;;;;;4940434;29;20375;-75
2021/01/02 08:09:19;;;;;;;9.80;1.08;;;17.80;51.90;;;;;;4929569;29;20463;-75
2021/01/02 08:12:04;;;;;;;11.13;0.82;;;17.80;52.00;;;;;;4931973;29;20099;-76
2021/01/02 08:14:32;;;;;;;5.50;0.60;;;17.90;52.20;;;;;;4921302;29;20124;-74
2021/01/02 08:17:03;;;;;;;5.60;0.98;;;17.90;52.20;;;;;;4921008;29;20107;-75
2021/01/02 08:19:30;;;;;;;6.22;1.05;;;17.90;52.20;;;;;;4917412;29;20048;-75
2021/01/02 08:21:56;;;;;;;4.40;0.50;;;17.90;52.20;;;;;;4921095;29;20052;-75
2021/01/02 08:24:22;;;;;;;3.70;0.90;;;17.90;52.10;;;;;;4938326;29;20107;-75
2021/01/02 08:26:48;;;;;;;7.93;1.40;;;17.90;52.10;;;;;;4935293;29;20082;-74
2021/01/02 08:29:15;;;;;;;6.40;0.68;;;17.90;52.10;;;;;;4940786;29;20110;-75
2021/01/02 08:31:48;;;;;;;11.43;1.48;;;17.90;52.10;;;;;;4939464;29;20044;-75
2021/01/02 08:34:22;;;;;;;6.30;0.60;;;17.90;52.10;;;;;;4935551;29;20048;-74
2021/01/02 08:36:47;;;;;;;8.05;0.65;;;17.90;52.10;;;;;;4940528;29;20048;-75
2021/01/02 08:39:19;;;;;;;5.50;0.73;;;17.90;52.10;;;;;;4924627;29;20050;-75
2021/01/02 08:41:56;;;;;;;22.65;1.95;;;17.90;52.10;;;;;;4939166;29;20534;-74
2021/01/02 08:44:24;;;;;;;13.20;1.33;;;17.90;52.20;;;;;;4937350;29;20052;-74
2021/01/02 08:46:50;;;;;;;13.68;1.20;;;17.90;52.20;;;;;;4940418;29;20051;-75
2021/01/02 08:49:36;;;;;;;13.80;1.55;;;17.90;52.20;;;;;;4936503;29;20494;-75
2021/01/02 08:52:13;;;;;;;13.65;0.95;;;17.90;52.20;;;;;;4921227;29;20464;-75
2021/01/02 08:54:39;;;;;;;9.95;0.98;;;18.00;52.90;;;;;;4931352;29;20055;-74
2021/01/02 08:57:31;;;;;;;6.57;0.90;;;18.00;52.20;;;;;;4937344;29;20043;-75
2021/01/02 09:00:11;;;;;;;11.05;0.82;;;17.90;52.20;;;;;;4940439;29;20051;-76
2021/01/02 09:02:39;;;;;;;11.00;0.95;;;18.00;52.20;;;;;;4935912;29;20108;-77
2021/01/02 09:05:07;;;;;;;11.52;1.33;;;18.00;52.10;;;;;;4938188;29;20040;-76
2021/01/02 09:07:33;;;;;;;8.55;0.70;;;18.00;52.10;;;;;;4937049;29;20048;-77
2021/01/02 09:10:17;;;;;;;8.68;0.60;;;18.00;52.00;;;;;;4928611;29;20066;-76
2021/01/02 09:12:58;;;;;;;5.13;1.05;;;18.00;52.50;;;;;;4920646;29;20411;-76
2021/01/02 09:15:38;;;;;;;8.90;1.00;;;18.00;51.90;;;;;;4919818;29;20052;-77
2021/01/02 09:18:04;;;;;;;4.95;1.02;;;18.00;52.00;;;;;;4933718;29;20058;-76
2021/01/02 09:20:30;;;;;;;7.75;0.90;;;17.90;51.80;;;;;;4939380;29;20126;-76
2021/01/02 09:22:55;;;;;;;5.85;0.73;;;18.00;51.80;;;;;;4930270;29;20059;-76
2021/01/02 09:25:29;;;;;;;4.03;0.63;;;17.90;51.70;;;;;;4920494;29;20514;-77
2021/01/02 09:27:55;;;;;;;7.15;0.70;;;17.90;51.80;;;;;;4932500;29;20443;-75
2021/01/02 09:30:22;;;;;;;4.72;0.32;;;17.90;51.90;;;;;;4933747;29;20043;-76
2021/01/02 09:32:49;;;;;;;7.28;0.82;;;17.90;51.90;;;;;;4938635;29;20048;-76
2021/01/02 09:35:14;;;;;;;11.63;0.90;;;17.90;52.20;;;;;;4939266;29;20412;-76
2021/01/02 09:37:42;;;;;;;11.32;0.70;;;17.80;52.40;;;;;;4937077;29;20047;-75
2021/01/02 09:40:13;;;;;;;5.70;0.90;;;17.80;52.50;;;;;;4936008;29;20393;-77
2021/01/02 09:42:39;;;;;;;7.95;0.80;;;17.80;52.70;;;;;;4919897;29;20044;-77
2021/01/02 09:45:06;;;;;;;4.53;0.55;;;17.80;52.80;;;;;;4919716;29;20491;-76
2021/01/02 09:47:31;;;;;;;13.98;0.90;;;17.80;52.90;;;;;;4920777;29;20525;-77
2021/01/02 09:49:57;;;;;;;9.55;0.77;;;17.90;53.10;;;;;;4919769;29;20044;-76
2021/01/02 09:52:24;;;;;;;10.27;0.70;;;17.90;53.30;;;;;;4920287;29;20056;-76
2021/01/02 09:54:49;;;;;;;8.55;1.30;;;17.90;53.40;;;;;;4923766;29;20118;-75
2021/01/02 09:57:15;;;;;;;3.90;0.90;;;17.80;53.00;;;;;;4932008;29;20047;-75
2021/01/02 09:59:43;;;;;;;9.60;1.40;;;17.70;53.00;;;;;;4938713;29;20090;-74
2021/01/02 10:02:09;;;;;;;9.55;1.30;;;17.70;53.30;;;;;;4936915;29;20063;-76
2021/01/02 10:04:41;;;;;;;6.20;0.90;;;17.70;53.60;;;;;;4928680;29;20063;-77
2021/01/02 10:07:07;;;;;;;4.88;0.98;;;17.70;53.60;;;;;;4923387;29;20409;-78
2021/01/02 10:09:33;;;;;;;4.18;0.50;;;17.70;53.40;;;;;;4922834;29;20111;-76
2021/01/02 10:11:58;;;;;;;7.45;0.73;;;17.70;53.50;;;;;;4934427;29;20102;-76
2021/01/02 10:14:27;;;;;;;5.28;0.50;;;17.70;53.40;;;;;;4936427;29;20048;-76
2021/01/02 10:16:55;;;;;;;5.95;0.70;;;17.80;53.20;;;;;;4938233;29;20397;-76
2021/01/02 10:19:21;;;;;;;2.60;0.40;;;17.80;53.00;;;;;;4934156;29;20128;-74
2021/01/02 10:21:48;;;;;;;3.65;0.43;;;17.90;53.00;;;;;;4918618;29;20427;-74
2021/01/02 10:24:13;;;;;;;4.60;0.30;;;17.90;52.90;;;;;;4922517;29;20039;-74
2021/01/02 10:26:39;;;;;;;5.05;0.70;;;18.00;52.80;;;;;;4937956;29;20083;-74
2021/01/02 10:29:05;;;;;;;3.45;0.70;;;18.10;52.70;;;;;;4936034;29;20447;-73
2021/01/02 10:31:31;;;;;;;5.40;0.57;;;18.10;52.60;;;;;;4938049;29;20135;-74
2021/01/02 10:33:57;;;;;;;7.32;0.50;;;18.20;52.50;;;;;;4930907;29;20178;-74
2021/01/02 10:36:22;;;;;;;3.28;0.30;;;18.30;52.40;;;;;;4918931;29;20350;-75
2021/01/02 10:38:48;;;;;;;2.42;0.30;;;18.30;52.40;;;;;;4919443;29;20044;-73
2021/01/02 10:41:15;;;;;;;3.45;0.52;;;18.40;52.30;;;;;;4930272;29;20455;-73
2021/01/02 10:43:40;;;;;;;3.97;0.30;;;18.40;52.20;;;;;;4930081;29;20126;-73
2021/01/02 10:46:07;;;;;;;2.70;0.40;;;18.40;52.10;;;;;;4917379;29;20474;-75
2021/01/02 10:48:33;;;;;;;2.47;0.32;;;18.40;52.00;;;;;;4918770;29;20115;-74
2021/01/02 10:50:59;;;;;;;8.20;1.55;;;18.40;52.10;;;;;;4919404;29;20183;-76
2021/01/02 10:53:25;;;;;;;5.65;0.50;;;18.40;52.20;;;;;;4918171;29;20075;-76
2021/01/02 10:55:51;;;;;;;3.13;0.60;;;18.40;52.20;;;;;;4922916;29;21041;-77
2021/01/02 10:58:17;;;;;;;4.53;0.55;;;18.40;52.20;;;;;;4916961;29;20056;-77
2021/01/02 11:00:43;;;;;;;5.07;0.32;;;18.40;52.20;;;;;;4932084;29;20071;-75
2021/01/02 11:03:09;;;;;;;4.85;0.45;;;18.40;52.20;;;;;;4918612;29;20059;-76
2021/01/02 11:05:35;;;;;;;1.83;0.57;;;18.40;52.20;;;;;;4919913;29;20367;-76
2021/01/02 11:08:01;;;;;;;5.18;0.45;;;18.50;52.20;;;;;;4918529;29;20040;-75
2021/01/02 11:10:26;;;;;;;8.20;0.88;;;18.50;52.20;;;;;;4901967;29;20058;-76
2021/01/02 11:12:52;;;;;;;4.28;0.60;;;18.50;52.20;;;;;;4919183;29;20119;-76
2021/01/02 11:15:18;;;;;;;8.68;0.40;;;18.40;52.20;;;;;;4918645;29;20127;-75
2021/01/02 11:17:44;;;;;;;2.67;0.40;;;18.40;52.30;;;;;;4932825;29;20048;-75
2021/01/02 11:20:11;;;;;;;6.03;0.73;;;18.40;52.40;;;;;;4937765;29;20043;-78
2021/01/02 11:22:39;;;;;;;6.60;0.50;;;18.40;52.40;;;;;;4937629;29;20440;-76
2021/01/02 11:25:05;;;;;;;6.90;0.90;;;18.40;52.40;;;;;;4929736;29;20122;-74
2021/01/02 11:27:31;;;;;;;8.43;0.50;;;18.40;52.30;;;;;;4918389;29;20071;-76
2021/01/02 11:29:58;;;;;;;8.48;0.75;;;18.30;52.20;;;;;;4919597;29;20068;-78
2021/01/02 11:32:24;;;;;;;5.43;0.75;;;18.40;52.30;;;;;;4919978;29;20068;-77
2021/01/02 11:34:49;;;;;;;6.43;0.40;;;18.40;52.20;;;;;;4922723;29;20052;-76
2021/01/02 11:37:15;;;;;;;6.28;0.77;;;18.40;52.20;;;;;;4939075;29;20495;-77
2021/01/02 11:39:41;;;;;;;6.72;0.98;;;18.40;52.20;;;;;;4940805;29;20185;-78
2021/01/02 11:42:09;;;;;;;7.35;0.50;;;18.40;52.20;;;;;;4924009;29;20048;-75
2021/01/02 11:44:36;;;;;;;8.10;0.80;;;18.50;52.10;;;;;;4922326;29;20052;-75
2021/01/02 11:47:03;;;;;;;6.35;1.08;;;18.50;52.20;;;;;;4929733;29;20040;-75
2021/01/02 11:49:35;;;;;;;5.55;0.50;;;18.40;51.40;;;;;;4924084;29;20372;-74
2021/01/02 11:52:04;;;;;;;4.30;0.50;;;18.30;51.00;;;;;;4922347;29;20545;-74
2021/01/02 11:54:32;;;;;;;7.82;0.52;;;18.20;51.20;;;;;;4922573;29;20040;-76
2021/01/02 11:56:58;;;;;;;3.45;0.52;;;18.20;51.30;;;;;;4922207;29;20051;-76
2021/01/02 11:59:24;;;;;;;3.08;0.50;;;18.20;51.30;;;;;;4941023;29;20051;-76
2021/01/02 12:01:53;;;;;;;3.88;0.52;;;18.10;51.20;;;;;;4934873;29;20460;-76
2021/01/02 12:04:23;;;;;;;1.95;0.43;;;18.10;51.10;;;;;;4941063;29;20074;-77
2021/01/02 12:06:53;;;;;;;5.03;0.60;;;18.20;51.20;;;;;;4940660;29;20114;-75
2021/01/02 12:09:21;;;;;;;3.17;0.30;;;18.20;51.20;;;;;;4941740;29;20082;-75
2021/01/02 12:11:48;;;;;;;2.38;0.40;;;18.20;51.20;;;;;;4940782;29;20363;-75
2021/01/02 12:14:17;;;;;;;3.92;0.40;;;18.20;51.20;;;;;;4940692;29;20040;-75
2021/01/02 12:16:46;;;;;;;2.60;0.70;;;18.30;51.10;;;;;;4940999;29;20044;-75
2021/01/02 12:19:15;;;;;;;2.90;0.55;;;18.30;51.20;;;;;;4940744;29;20478;-75
2021/01/02 12:21:41;;;;;;;2.35;0.60;;;18.30;51.20;;;;;;4940788;29;20075;-73
2021/01/02 12:24:08;;;;;;;1.25;0.30;;;18.30;51.30;;;;;;4940517;29;20071;-75
2021/01/02 12:26:34;;;;;;;1.25;0.38;;;18.30;51.40;;;;;;4940669;29;20055;-74
2021/01/02 12:29:00;;;;;;;2.17;0.50;;;18.20;51.40;;;;;;4940398;29;20127;-74
2021/01/02 12:31:28;;;;;;;2.17;0.40;;;18.20;51.40;;;;;;4940219;29;20458;-74
2021/01/02 12:33:55;;;;;;;2.15;0.50;;;18.30;51.40;;;;;;4930930;29;20067;-74
2021/01/02 12:36:32;;;;;;;1.95;0.35;;;18.20;51.40;;;;;;4936423;29;20044;-75
2021/01/02 12:38:58;;;;;;;2.05;0.45;;;18.20;51.40;;;;;;4940659;29;20055;-77
2021/01/02 12:41:24;;;;;;;1.48;0.38;;;18.20;51.50;;;;;;4940688;29;20051;-77
2021/01/02 12:43:50;;;;;;;2.05;0.20;;;18.20;51.50;;;;;;4939701;29;20095;-77
2021/01/02 12:46:17;;;;;;;4.63;0.30;;;18.20;51.60;;;;;;4939269;29;20048;-78
2021/01/02 12:48:46;;;;;;;1.63;0.38;;;18.30;51.60;;;;;;4940098;29;20387;-78
2021/01/02 12:51:12;;;;;;;1.00;0.40;;;18.20;51.60;;;;;;4940323;29;20464;-77
2021/01/02 12:53:39;;;;;;;2.13;0.30;;;18.20;51.60;;;;;;4940228;29;20074;-77
2021/01/02 12:56:06;;;;;;;2.10;0.40;;;18.20;51.60;;;;;;4940346;29;20067;-76
2021/01/02 12:58:32;;;;;;;1.98;0.55;;;18.20;51.60;;;;;;4939609;29;20060;-77
2021/01/02 13:00:59;;;;;;;3.28;0.32;;;18.10;51.60;;;;;;4940861;29;20051;-77
2021/01/02 13:03:24;;;;;;;3.05;0.40;;;18.10;51.70;;;;;;4939970;29;20132;-77
2021/01/02 13:05:50;;;;;;;1.38;0.28;;;18.10;51.70;;;;;;4939628;29;20047;-77